createdAt,value
2019-03-22T00:01:53.322Z,7.80
2019-03-22T00:04:21.589Z,7.81
2019-03-22T00:06:49.870Z,7.74
2019-03-22T00:09:18.133Z,7.68
2019-03-22T00:11:46.692Z,7.75
2019-03-22T00:14:14.957Z,7.72
2019-03-22T00:16:43.249Z,7.93
2019-03-22T00:19:11.505Z,7.95
2019-03-22T00:21:39.786Z,7.98
2019-03-22T00:24:08.048Z,7.99
2019-03-22T00:26:37.155Z,8.04
2019-03-22T00:29:05.440Z,8.23
2019-03-22T00:31:33.729Z,7.99
2019-03-22T00:34:01.985Z,7.97
2019-03-22T00:36:30.271Z,7.89
2019-03-22T00:38:59.355Z,8.08
2019-03-22T00:41:27.634Z,8.21
2019-03-22T00:43:56.489Z,8.22
2019-03-22T00:46:24.745Z,8.05
2019-03-22T00:48:53.002Z,8.11
2019-03-22T00:51:21.289Z,8.09
2019-03-22T00:53:49.554Z,8.10
2019-03-22T00:56:17.833Z,8.04
2019-03-22T00:58:46.097Z,8.08
2019-03-22T01:01:14.377Z,8.10
2019-03-22T01:03:42.647Z,7.82
2019-03-22T01:06:10.936Z,7.81
2019-03-22T01:08:39.185Z,7.76
2019-03-22T01:11:07.721Z,7.67
2019-03-22T01:13:36.002Z,7.90
2019-03-22T01:16:04.267Z,8.06
2019-03-22T01:18:33.118Z,8.09
2019-03-22T01:21:01.946Z,8.15
2019-03-22T01:23:30.233Z,8.06
2019-03-22T01:25:58.493Z,7.97
2019-03-22T01:28:26.782Z,7.76
2019-03-22T01:30:55.046Z,7.73
2019-03-22T01:33:23.327Z,7.66
2019-03-22T01:35:51.586Z,7.45
2019-03-22T01:38:20.433Z,7.34
2019-03-22T01:40:49.463Z,7.31
2019-03-22T01:43:17.751Z,7.34
2019-03-22T01:45:46.009Z,7.01
2019-03-22T01:48:14.296Z,6.97
2019-03-22T01:50:42.556Z,6.98
2019-03-22T01:53:10.833Z,7.05
2019-03-22T01:55:39.099Z,6.93
2019-03-22T01:58:07.419Z,7.06
2019-03-22T02:00:35.685Z,7.06
2019-03-22T02:03:03.981Z,7.24
2019-03-22T02:05:32.225Z,7.41
2019-03-22T02:08:01.280Z,7.54
2019-03-22T02:10:30.211Z,7.61
2019-03-22T02:12:58.498Z,7.62
2019-03-22T02:15:27.852Z,7.40
2019-03-22T02:17:56.804Z,7.30
2019-03-22T02:20:25.063Z,7.12
2019-03-22T02:22:53.343Z,7.09
2019-03-22T02:25:21.604Z,7.07
2019-03-22T02:27:50.656Z,7.07
2019-03-22T02:30:18.939Z,7.22
2019-03-22T02:32:47.535Z,7.37
2019-03-22T02:35:28.198Z,7.18
2019-03-22T02:37:47.357Z,7.21
2019-03-22T02:40:15.607Z,7.07
2019-03-22T02:42:43.893Z,6.94
2019-03-22T02:45:14.354Z,6.92
2019-03-22T02:47:41.998Z,6.87
2019-03-22T02:50:18.372Z,7.08
2019-03-22T02:52:42.508Z,6.99
2019-03-22T02:55:11.309Z,6.92
2019-03-22T02:57:39.594Z,6.84
2019-03-22T03:00:18.005Z,6.79
2019-03-22T03:02:46.296Z,6.63
2019-03-22T03:05:15.713Z,6.58
2019-03-22T03:07:43.972Z,6.74
2019-03-22T03:10:14.684Z,6.67
2019-03-22T03:12:43.536Z,6.64
2019-03-22T03:15:16.370Z,6.61
2019-03-22T03:17:44.624Z,6.59
2019-03-22T03:20:17.476Z,6.65
2019-03-22T03:22:46.510Z,6.60
2019-03-22T03:25:15.068Z,6.68
2019-03-22T03:27:43.898Z,6.67
2019-03-22T03:30:15.310Z,6.65
2019-03-22T03:32:43.561Z,6.59
2019-03-22T03:35:11.846Z,6.46
2019-03-22T03:37:40.111Z,6.63
2019-03-22T03:40:13.122Z,6.65
2019-03-22T03:42:41.699Z,6.60
2019-03-22T03:45:34.667Z,6.33
2019-03-22T03:48:04.798Z,6.31
2019-03-22T03:50:33.080Z,6.40
2019-03-22T03:53:01.919Z,6.70
2019-03-22T03:55:30.973Z,6.65
2019-03-22T03:57:59.231Z,7.07
2019-03-22T04:00:28.081Z,7.36
2019-03-22T04:02:56.360Z,7.30
2019-03-22T04:05:25.088Z,7.19
2019-03-22T04:07:53.507Z,7.01
2019-03-22T04:10:21.794Z,7.00
2019-03-22T04:12:50.824Z,6.74
2019-03-22T04:15:19.107Z,6.69
2019-03-22T04:17:48.051Z,6.58
2019-03-22T04:20:16.336Z,6.53
2019-03-22T04:22:44.583Z,7.01
2019-03-22T04:25:12.878Z,7.29
2019-03-22T04:27:41.899Z,7.34
2019-03-22T04:30:11.540Z,7.46
2019-03-22T04:32:39.778Z,7.51
2019-03-22T04:35:08.127Z,7.56
2019-03-22T04:37:36.394Z,7.65
2019-03-22T04:40:25.854Z,7.57
2019-03-22T04:42:54.127Z,7.51
2019-03-22T04:45:23.234Z,7.55
2019-03-22T04:47:53.996Z,7.49
2019-03-22T04:50:22.281Z,7.54
2019-03-22T04:52:50.783Z,7.18
2019-03-22T04:55:19.639Z,6.93
2019-03-22T04:57:47.906Z,6.77
2019-03-22T05:00:16.190Z,6.83
2019-03-22T05:02:44.448Z,7.15
2019-03-22T05:05:13.040Z,7.17
2019-03-22T05:07:41.371Z,7.24
2019-03-22T05:10:10.023Z,7.35
2019-03-22T05:12:38.289Z,7.40
2019-03-22T05:15:07.444Z,7.37
2019-03-22T05:17:35.708Z,7.15
2019-03-22T05:20:05.028Z,6.99
2019-03-22T05:22:33.291Z,6.92
2019-03-22T05:25:02.147Z,6.97
2019-03-22T05:27:30.414Z,7.04
2019-03-22T05:29:58.695Z,7.07
2019-03-22T05:32:27.524Z,7.08
2019-03-22T05:34:56.584Z,7.16
2019-03-22T05:37:24.843Z,7.18
2019-03-22T05:39:53.130Z,7.11
2019-03-22T05:42:21.392Z,7.02
2019-03-22T05:44:49.680Z,7.06
2019-03-22T05:47:18.706Z,6.78
2019-03-22T05:49:47.767Z,6.70
2019-03-22T05:52:16.025Z,6.57
2019-03-22T05:54:44.977Z,6.68
2019-03-22T05:57:14.120Z,6.74
2019-03-22T05:59:43.185Z,6.89
2019-03-22T06:02:11.620Z,6.93
2019-03-22T06:04:39.880Z,6.87
2019-03-22T06:07:08.232Z,6.90
2019-03-22T06:09:37.061Z,7.17
2019-03-22T06:12:05.343Z,7.04
2019-03-22T06:14:34.376Z,7.06
2019-03-22T06:17:02.660Z,7.17
2019-03-22T06:19:31.695Z,7.20
2019-03-22T06:21:59.978Z,7.23
2019-03-22T06:24:28.552Z,7.43
2019-03-22T06:26:57.134Z,7.44
2019-03-22T06:29:25.521Z,7.52
2019-03-22T06:31:53.786Z,7.54
2019-03-22T06:34:22.215Z,7.67
2019-03-22T06:36:50.507Z,7.65
2019-03-22T06:39:18.768Z,7.67
2019-03-22T06:41:47.051Z,7.68
2019-03-22T06:44:15.313Z,7.81
2019-03-22T06:46:43.599Z,7.88
2019-03-22T06:49:11.860Z,8.09
2019-03-22T06:51:40.243Z,8.06
2019-03-22T06:54:08.572Z,8.14
2019-03-22T06:56:36.855Z,8.24
2019-03-22T06:59:05.160Z,8.34
2019-03-22T07:01:33.400Z,8.39
2019-03-22T07:04:01.660Z,8.48
2019-03-22T07:06:29.944Z,8.49
2019-03-22T07:08:58.380Z,8.56
2019-03-22T07:11:26.669Z,8.60
2019-03-22T07:13:54.933Z,8.64
2019-03-22T07:16:23.215Z,8.68
2019-03-22T07:18:51.477Z,8.79
2019-03-22T07:21:19.764Z,8.85
2019-03-22T07:23:48.095Z,8.86
2019-03-22T07:26:16.547Z,8.94
2019-03-22T07:28:44.976Z,9.07
2019-03-22T07:31:13.335Z,9.14
2019-03-22T07:33:41.773Z,9.15
2019-03-22T07:36:10.056Z,9.15
2019-03-22T07:38:38.369Z,9.26
2019-03-22T07:41:06.653Z,9.33
2019-03-22T07:43:35.083Z,9.42
2019-03-22T07:46:03.368Z,9.54
2019-03-22T07:48:32.400Z,9.62
2019-03-22T07:51:00.682Z,9.66
2019-03-22T07:53:29.306Z,9.70
2019-03-22T07:55:57.564Z,9.76
2019-03-22T07:58:26.882Z,9.84
2019-03-22T08:00:55.153Z,10.04
2019-03-22T08:03:23.431Z,10.25
2019-03-22T08:05:51.815Z,10.45
2019-03-22T08:08:20.061Z,10.80
2019-03-22T08:10:48.892Z,11.01
2019-03-22T08:13:17.176Z,11.03
2019-03-22T08:15:45.454Z,11.15
2019-03-22T08:18:13.722Z,11.14
2019-03-22T08:20:41.980Z,11.18
2019-03-22T08:23:18.518Z,11.29
2019-03-22T08:25:46.757Z,11.46
2019-03-22T08:28:15.056Z,11.46
2019-03-22T08:30:43.590Z,11.53
2019-03-22T08:33:11.889Z,11.75
2019-03-22T08:35:40.897Z,11.90
2019-03-22T08:38:09.190Z,12.02
2019-03-22T08:40:37.448Z,12.29
2019-03-22T08:43:05.731Z,12.26
2019-03-22T08:45:34.004Z,12.43
2019-03-22T08:48:02.323Z,12.50
2019-03-22T08:50:30.538Z,12.58
2019-03-22T08:52:58.823Z,12.57
2019-03-22T08:55:27.426Z,12.77
2019-03-22T08:57:55.684Z,12.86
2019-03-22T09:00:24.016Z,12.84
2019-03-22T09:02:52.292Z,13.09
2019-03-22T09:05:21.161Z,13.21
2019-03-22T09:07:49.407Z,13.35
2019-03-22T09:10:18.365Z,13.57
2019-03-22T09:12:46.623Z,13.78
2019-03-22T09:15:14.884Z,13.91
2019-03-22T09:17:43.169Z,13.95
2019-03-22T09:20:11.428Z,14.11
2019-03-22T09:22:39.718Z,14.11
2019-03-22T09:25:08.608Z,14.27
2019-03-22T09:27:36.991Z,14.39
2019-03-22T09:30:11.481Z,14.42
2019-03-22T09:32:39.763Z,14.60
2019-03-22T09:35:08.025Z,14.78
2019-03-22T09:37:36.674Z,15.05
2019-03-22T09:40:08.620Z,15.04
2019-03-22T09:42:37.129Z,15.09
2019-03-22T09:45:06.818Z,15.28
2019-03-22T09:47:35.076Z,15.48
2019-03-22T09:50:04.907Z,15.38
2019-03-22T09:52:33.822Z,15.34
2019-03-22T09:55:12.635Z,15.38
2019-03-22T09:57:32.816Z,15.42
2019-03-22T10:00:01.142Z,15.33
2019-03-22T10:02:29.473Z,15.30
2019-03-22T10:04:58.464Z,15.31
2019-03-22T10:07:26.804Z,15.26
2019-03-22T10:09:55.106Z,15.41
2019-03-22T10:12:23.345Z,15.62
2019-03-22T10:14:51.666Z,15.95
2019-03-22T10:17:19.911Z,16.05
2019-03-22T10:19:48.195Z,16.13
2019-03-22T10:22:16.460Z,16.13
2019-03-22T10:24:44.787Z,16.16
2019-03-22T10:27:13.065Z,16.14
2019-03-22T10:29:41.316Z,16.41
2019-03-22T10:32:09.582Z,16.29
2019-03-22T10:34:39.888Z,16.26
2019-03-22T10:37:07.641Z,16.37
2019-03-22T10:39:36.679Z,16.47
2019-03-22T10:42:06.559Z,16.62
2019-03-22T10:44:35.387Z,16.80
2019-03-22T10:47:04.482Z,16.70
2019-03-22T10:49:32.720Z,16.87
2019-03-22T10:52:01.090Z,16.72
2019-03-22T10:54:30.115Z,16.89
2019-03-22T10:56:58.448Z,16.98
2019-03-22T10:59:26.743Z,16.90
2019-03-22T11:02:03.402Z,17.09
2019-03-22T11:04:25.788Z,17.11
2019-03-22T11:06:54.140Z,17.36
2019-03-22T11:09:22.423Z,17.62
2019-03-22T11:11:50.722Z,17.62
2019-03-22T11:14:18.969Z,17.46
2019-03-22T11:16:47.230Z,17.50
2019-03-22T11:19:15.555Z,17.73
2019-03-22T11:21:43.816Z,17.84
2019-03-22T11:24:12.099Z,17.81
2019-03-22T11:26:40.936Z,17.97
2019-03-22T11:29:09.218Z,17.95
2019-03-22T11:31:40.150Z,18.15
2019-03-22T11:34:07.494Z,18.29
2019-03-22T11:36:35.751Z,18.49
2019-03-22T11:39:15.109Z,18.51
2019-03-22T11:41:38.351Z,18.61
2019-03-22T11:44:07.176Z,18.61
2019-03-22T11:46:35.435Z,18.61
2019-03-22T11:49:03.729Z,18.52
2019-03-22T11:51:32.574Z,18.39
2019-03-22T11:54:00.847Z,18.60
2019-03-22T11:56:29.104Z,18.82
2019-03-22T11:58:58.156Z,18.75
2019-03-22T12:01:26.415Z,18.39
2019-03-22T12:03:54.695Z,18.64
2019-03-22T12:06:22.963Z,18.73
2019-03-22T12:08:51.244Z,18.70
2019-03-22T12:11:19.502Z,18.92
2019-03-22T12:13:47.794Z,19.13
2019-03-22T12:16:16.096Z,19.22
2019-03-22T12:18:44.848Z,19.10
2019-03-22T12:21:14.448Z,19.26
2019-03-22T12:23:42.726Z,19.26
2019-03-22T12:26:11.764Z,19.35
2019-03-22T12:28:40.042Z,19.49
2019-03-22T12:31:08.876Z,19.70
2019-03-22T12:33:37.160Z,19.40
2019-03-22T12:36:05.425Z,19.51
2019-03-22T12:38:33.716Z,19.41
2019-03-22T12:41:02.748Z,19.41
2019-03-22T12:43:31.031Z,19.42
2019-03-22T12:45:59.764Z,19.66
2019-03-22T12:48:28.824Z,19.67
2019-03-22T12:50:57.905Z,19.65
2019-03-22T12:53:26.187Z,19.72
2019-03-22T12:55:54.448Z,19.57
2019-03-22T12:58:22.733Z,19.76
2019-03-22T13:00:51.667Z,19.84
2019-03-22T13:03:19.933Z,19.66
2019-03-22T13:05:48.220Z,19.70
2019-03-22T13:08:16.483Z,19.60
2019-03-22T13:10:45.339Z,20.29
2019-03-22T13:13:13.600Z,20.29
2019-03-22T13:15:41.884Z,20.34
2019-03-22T13:18:10.915Z,20.21
2019-03-22T13:20:39.484Z,20.41
2019-03-22T13:23:08.548Z,20.35
2019-03-22T13:25:37.398Z,20.12
2019-03-22T13:28:05.661Z,19.77
2019-03-22T13:30:35.283Z,20.07
2019-03-22T13:33:03.814Z,20.48
2019-03-22T13:35:32.094Z,20.51
2019-03-22T13:38:00.354Z,20.11
2019-03-22T13:40:28.633Z,20.63
2019-03-22T13:42:56.890Z,20.78
2019-03-22T13:45:25.949Z,20.70
2019-03-22T13:47:54.576Z,20.69
2019-03-22T13:50:22.858Z,20.78
2019-03-22T13:52:51.122Z,20.88
2019-03-22T13:55:19.395Z,21.02
2019-03-22T13:57:47.658Z,20.84
2019-03-22T14:00:17.666Z,20.98
2019-03-22T14:02:45.921Z,20.78
2019-03-22T14:05:14.198Z,20.79
2019-03-22T14:07:43.234Z,20.89
2019-03-22T14:10:31.482Z,21.02
2019-03-22T14:13:01.937Z,21.09
2019-03-22T14:15:30.213Z,20.95
2019-03-22T14:17:58.641Z,21.32
2019-03-22T14:20:26.921Z,21.14
2019-03-22T14:22:55.176Z,20.72
2019-03-22T14:25:23.533Z,21.12
2019-03-22T14:27:52.058Z,21.09
2019-03-22T14:30:20.343Z,21.23
2019-03-22T14:32:48.603Z,21.19
2019-03-22T14:35:17.426Z,21.44
2019-03-22T14:37:46.474Z,21.45
2019-03-22T14:40:15.743Z,21.56
2019-03-22T14:42:44.290Z,21.35
2019-03-22T14:45:13.114Z,21.07
2019-03-22T14:47:41.397Z,20.75
2019-03-22T14:50:10.493Z,20.58
2019-03-22T14:52:38.774Z,20.68
2019-03-22T14:55:07.034Z,20.42
2019-03-22T14:57:35.323Z,20.11
2019-03-22T15:00:05.687Z,19.74
2019-03-22T15:02:34.838Z,19.72
2019-03-22T15:05:03.100Z,19.75
2019-03-22T15:07:31.389Z,19.86
2019-03-22T15:09:59.647Z,19.98
2019-03-22T15:12:27.932Z,20.07
2019-03-22T15:15:04.557Z,19.85
2019-03-22T15:17:37.206Z,19.35
2019-03-22T15:20:13.395Z,19.16
2019-03-22T15:22:49.883Z,19.02
2019-03-22T15:25:19.777Z,18.76
2019-03-22T15:27:58.826Z,18.02
2019-03-22T15:30:44.937Z,18.06
2019-03-22T15:33:34.167Z,17.63
2019-03-22T15:36:15.358Z,17.18
2019-03-22T15:38:45.384Z,16.99
2019-03-22T15:41:13.741Z,17.26
2019-03-22T15:43:42.862Z,17.02
2019-03-22T15:46:11.689Z,16.62
2019-03-22T15:48:39.967Z,16.78
2019-03-22T15:51:08.222Z,16.83
2019-03-22T15:53:37.074Z,16.75
2019-03-22T15:56:05.335Z,16.90
2019-03-22T15:58:33.878Z,16.64
2019-03-22T16:01:02.307Z,16.51
2019-03-22T16:03:32.524Z,16.69
2019-03-22T16:06:00.876Z,16.41
2019-03-22T16:08:29.142Z,16.22
2019-03-22T16:10:57.405Z,16.00
2019-03-22T16:13:27.018Z,15.86
2019-03-22T16:15:55.276Z,15.53
2019-03-22T16:18:24.323Z,15.55
2019-03-22T16:20:59.865Z,15.50
2019-03-22T16:23:22.592Z,15.21
2019-03-22T16:25:50.836Z,15.43
2019-03-22T16:28:19.118Z,15.17
2019-03-22T16:30:47.374Z,14.96
2019-03-22T16:33:15.670Z,14.82
2019-03-22T16:35:43.936Z,14.56
2019-03-22T16:38:12.217Z,14.58
2019-03-22T16:40:40.470Z,14.92
2019-03-22T16:43:08.756Z,15.26
2019-03-22T16:45:41.588Z,15.07
2019-03-22T16:48:09.875Z,15.04
2019-03-22T16:50:38.132Z,14.63
2019-03-22T16:53:06.415Z,14.80
2019-03-22T16:55:35.443Z,14.92
2019-03-22T16:58:03.723Z,15.22
2019-03-22T17:00:31.983Z,15.33
2019-03-22T17:03:00.267Z,15.00
2019-03-22T17:05:28.522Z,15.04
2019-03-22T17:07:56.781Z,14.75
2019-03-22T17:10:25.095Z,14.74
2019-03-22T17:12:53.923Z,14.57
2019-03-22T17:15:22.196Z,14.28
2019-03-22T17:17:50.507Z,13.99
2019-03-22T17:20:18.789Z,13.71
2019-03-22T17:22:47.289Z,13.72
2019-03-22T17:25:15.567Z,13.73
2019-03-22T17:27:45.438Z,13.84
2019-03-22T17:30:13.792Z,14.03
2019-03-22T17:32:43.381Z,14.21
2019-03-22T17:35:11.658Z,13.76
2019-03-22T17:37:39.916Z,13.46
2019-03-22T17:40:08.468Z,13.25
2019-03-22T17:42:36.994Z,13.07
2019-03-22T17:45:11.009Z,13.09
2019-03-22T17:47:39.267Z,12.92
2019-03-22T17:50:08.893Z,12.95
2019-03-22T17:52:37.151Z,12.92
2019-03-22T17:55:07.171Z,13.09
2019-03-22T17:57:35.774Z,13.13
2019-03-22T18:00:05.992Z,13.00
2019-03-22T18:02:34.249Z,12.81
2019-03-22T18:05:02.528Z,12.81
2019-03-22T18:07:30.781Z,12.63
2019-03-22T18:09:59.062Z,12.54
2019-03-22T18:12:28.358Z,12.89
2019-03-22T18:14:57.210Z,12.75
2019-03-22T18:17:25.467Z,12.69
2019-03-22T18:19:53.751Z,12.70
2019-03-22T18:22:22.006Z,12.55
2019-03-22T18:24:50.287Z,12.57
2019-03-22T18:27:19.314Z,12.78
2019-03-22T18:29:47.598Z,12.70
2019-03-22T18:32:15.857Z,12.67
2019-03-22T18:34:44.706Z,12.53
2019-03-22T18:37:12.957Z,12.54
2019-03-22T18:39:41.216Z,12.40
2019-03-22T18:42:09.498Z,12.21
2019-03-22T18:44:37.833Z,12.40
2019-03-22T18:47:06.109Z,12.50
2019-03-22T18:49:34.935Z,12.23
2019-03-22T18:52:03.511Z,11.84
2019-03-22T18:54:31.765Z,11.64
2019-03-22T18:57:00.049Z,11.61
2019-03-22T18:59:28.297Z,11.77
2019-03-22T19:01:56.578Z,11.66
2019-03-22T19:04:25.408Z,11.70
2019-03-22T19:06:53.691Z,11.71
2019-03-22T19:09:22.722Z,11.58
2019-03-22T19:11:51.006Z,11.75
2019-03-22T19:14:19.266Z,11.76
2019-03-22T19:16:47.545Z,11.81
2019-03-22T19:19:16.368Z,11.73
2019-03-22T19:21:45.034Z,11.77
2019-03-22T19:24:14.081Z,11.89
2019-03-22T19:26:42.338Z,12.05
2019-03-22T19:29:10.641Z,12.11
2019-03-22T19:31:38.899Z,12.12
2019-03-22T19:34:07.205Z,12.11
2019-03-22T19:36:36.225Z,12.20
2019-03-22T19:39:06.542Z,11.89
2019-03-22T19:41:35.187Z,11.75
2019-03-22T19:44:03.460Z,11.71
2019-03-22T19:46:31.728Z,11.51
2019-03-22T19:49:00.012Z,11.58
2019-03-22T19:51:28.273Z,11.48
2019-03-22T19:53:56.549Z,11.33
2019-03-22T19:56:24.810Z,11.40
2019-03-22T19:58:53.854Z,11.48
2019-03-22T20:01:22.118Z,11.33
2019-03-22T20:03:50.404Z,11.26
2019-03-22T20:06:19.436Z,11.19
2019-03-22T20:08:47.720Z,11.31
2019-03-22T20:11:15.979Z,11.28
2019-03-22T20:13:44.822Z,11.17
2019-03-22T20:16:13.649Z,11.00
2019-03-22T20:18:41.929Z,11.02
2019-03-22T20:21:10.190Z,10.93
2019-03-22T20:23:38.489Z,11.01
2019-03-22T20:26:06.750Z,10.96
2019-03-22T20:28:35.029Z,10.88
2019-03-22T20:31:03.291Z,10.82
2019-03-22T20:33:31.546Z,10.95
2019-03-22T20:35:59.826Z,10.76
2019-03-22T20:38:28.082Z,10.89
2019-03-22T20:40:56.365Z,11.05
2019-03-22T20:43:25.205Z,10.95
2019-03-22T20:45:53.494Z,10.96
2019-03-22T20:48:21.750Z,10.88
2019-03-22T20:50:50.601Z,10.92
2019-03-22T20:53:19.726Z,10.95
2019-03-22T20:55:48.574Z,10.80
2019-03-22T20:58:16.893Z,10.84
2019-03-22T21:00:45.171Z,10.65
2019-03-22T21:03:13.998Z,10.69
2019-03-22T21:05:42.281Z,10.55
2019-03-22T21:08:10.539Z,10.76
2019-03-22T21:10:39.592Z,10.76
2019-03-22T21:13:07.842Z,10.75
2019-03-22T21:15:36.117Z,10.63
2019-03-22T21:18:04.384Z,10.53
2019-03-22T21:20:32.654Z,10.46
2019-03-22T21:23:00.915Z,10.61
2019-03-22T21:25:29.194Z,10.65
2019-03-22T21:27:58.295Z,10.37
2019-03-22T21:30:26.580Z,10.38
2019-03-22T21:32:54.839Z,10.52
2019-03-22T21:35:23.885Z,10.45
2019-03-22T21:37:52.144Z,10.59
2019-03-22T21:40:21.328Z,10.65
2019-03-22T21:42:50.357Z,10.72
2019-03-22T21:45:18.911Z,10.72
2019-03-22T21:47:47.840Z,10.70
2019-03-22T21:50:16.130Z,10.65
2019-03-22T21:52:44.662Z,10.53
2019-03-22T21:55:13.518Z,10.61
2019-03-22T21:57:41.773Z,10.58
2019-03-22T22:00:12.553Z,10.44
2019-03-22T22:02:40.814Z,10.55
2019-03-22T22:05:09.090Z,10.67
2019-03-22T22:07:37.347Z,10.47
2019-03-22T22:10:07.422Z,10.55
2019-03-22T22:12:35.673Z,10.66
2019-03-22T22:15:12.135Z,10.45
2019-03-22T22:17:41.062Z,10.35
2019-03-22T22:20:10.277Z,10.51
2019-03-22T22:22:39.877Z,10.39
2019-03-22T22:25:08.755Z,10.49
2019-03-22T22:27:37.180Z,10.63
2019-03-22T22:30:10.422Z,10.62
2019-03-22T22:32:38.639Z,10.67
2019-03-22T22:35:09.679Z,10.66
2019-03-22T22:37:37.934Z,10.53
2019-03-22T22:40:07.761Z,10.44
2019-03-22T22:42:36.092Z,10.38
2019-03-22T22:45:07.296Z,10.17
2019-03-22T22:47:35.850Z,10.12
2019-03-22T22:50:05.366Z,10.20
2019-03-22T22:52:33.617Z,9.98
2019-03-22T22:55:01.893Z,9.77
2019-03-22T22:57:30.149Z,9.67
2019-03-22T22:59:58.410Z,9.67
2019-03-22T23:02:26.682Z,9.81
2019-03-22T23:04:55.709Z,9.77
2019-03-22T23:07:23.989Z,9.67
2019-03-22T23:09:52.239Z,9.83
2019-03-22T23:12:20.513Z,9.80
2019-03-22T23:14:48.765Z,9.93
2019-03-22T23:17:17.814Z,10.07
2019-03-22T23:19:46.075Z,10.12
2019-03-22T23:22:14.346Z,9.98
2019-03-22T23:24:42.883Z,10.19
2019-03-22T23:27:11.267Z,10.24
2019-03-22T23:29:39.530Z,10.32
2019-03-22T23:32:07.819Z,10.30
2019-03-22T23:34:36.644Z,10.32
2019-03-22T23:37:07.116Z,11.07
2019-03-22T23:39:34.970Z,10.70
2019-03-22T23:42:03.821Z,10.70
2019-03-22T23:44:32.074Z,10.96
2019-03-22T23:47:01.123Z,10.82
2019-03-22T23:49:29.384Z,10.64
2019-03-22T23:51:58.227Z,10.36
2019-03-22T23:54:26.482Z,10.20
2019-03-22T23:56:55.047Z,10.44
2019-03-22T23:59:23.777Z,10.69
